sensor_id;sensor_type;location;lat;lon;timestamp;pressure;altitude;pressure_sealevel;temperature;humidity
14089;BME280;7120;52.890;6.040;2022-11-20T00:00:57;101341.31;;;-1.25;86.28
14089;BME280;7120;52.890;6.040;2022-11-20T00:03:28;101342.94;;;-1.17;87.34
14089;BME280;7120;52.890;6.040;2022-11-20T00:05:59;101350.59;;;-1.27;87.73
14089;BME280;7120;52.890;6.040;2022-11-20T00:08:25;101370.00;;;-1.19;88.41
14089;BME280;7120;52.890;6.040;2022-11-20T00:10:50;101360.09;;;-1.18;89.07
14089;BME280;7120;52.890;6.040;2022-11-20T00:13:15;101345.66;;;-1.24;89.02
14089;BME280;7120;52.890;6.040;2022-11-20T00:15:41;101349.31;;;-1.12;88.17
14089;BME280;7120;52.890;6.040;2022-11-20T00:18:06;101343.28;;;-1.00;87.70
14089;BME280;7120;52.890;6.040;2022-11-20T00:20:31;101355.16;;;-0.76;87.16
14089;BME280;7120;52.890;6.040;2022-11-20T00:22:56;101346.66;;;-0.73;86.08
14089;BME280;7120;52.890;6.040;2022-11-20T00:25:22;101337.31;;;-0.64;85.91
14089;BME280;7120;52.890;6.040;2022-11-20T00:27:47;101357.06;;;-0.52;86.32
14089;BME280;7120;52.890;6.040;2022-11-20T00:30:12;101347.84;;;-0.63;86.10
14089;BME280;7120;52.890;6.040;2022-11-20T00:32:38;101357.56;;;-0.62;86.38
14089;BME280;7120;52.890;6.040;2022-11-20T00:35:04;101348.13;;;-0.39;85.77
14089;BME280;7120;52.890;6.040;2022-11-20T00:37:29;101350.13;;;-0.28;85.37
14089;BME280;7120;52.890;6.040;2022-11-20T00:39:54;101344.78;;;-0.35;85.03
14089;BME280;7120;52.890;6.040;2022-11-20T00:42:20;101334.31;;;-0.49;84.81
14089;BME280;7120;52.890;6.040;2022-11-20T00:44:45;101347.44;;;-0.28;84.81
14089;BME280;7120;52.890;6.040;2022-11-20T00:47:10;101345.38;;;-0.33;84.78
14089;BME280;7120;52.890;6.040;2022-11-20T00:49:36;101350.13;;;-0.28;84.55
14089;BME280;7120;52.890;6.040;2022-11-20T00:52:01;101355.94;;;-0.38;84.54
14089;BME280;7120;52.890;6.040;2022-11-20T00:54:26;101339.00;;;-0.38;84.96
14089;BME280;7120;52.890;6.040;2022-11-20T00:56:54;101345.44;;;-0.39;84.90
14089;BME280;7120;52.890;6.040;2022-11-20T00:59:20;101345.91;;;-0.49;84.83
14089;BME280;7120;52.890;6.040;2022-11-20T01:01:45;101348.66;;;-0.31;85.55
14089;BME280;7120;52.890;6.040;2022-11-20T01:04:10;101348.38;;;-0.47;86.09
14089;BME280;7120;52.890;6.040;2022-11-20T01:06:38;101351.34;;;-0.31;85.63
14089;BME280;7120;52.890;6.040;2022-11-20T01:09:12;101362.88;;;-0.23;85.25
14089;BME280;7120;52.890;6.040;2022-11-20T01:11:40;101353.63;;;-0.28;85.67
14089;BME280;7120;52.890;6.040;2022-11-20T01:14:09;101340.88;;;-0.39;85.42
14089;BME280;7120;52.890;6.040;2022-11-20T01:16:38;101342.16;;;-0.16;86.13
14089;BME280;7120;52.890;6.040;2022-11-20T01:19:06;101344.84;;;-0.16;86.46
14089;BME280;7120;52.890;6.040;2022-11-20T01:21:35;101348.53;;;-0.11;85.76
14089;BME280;7120;52.890;6.040;2022-11-20T01:24:02;101337.78;;;-0.11;84.91
14089;BME280;7120;52.890;6.040;2022-11-20T01:26:30;101341.28;;;-0.10;85.17
14089;BME280;7120;52.890;6.040;2022-11-20T01:28:56;101340.59;;;-0.31;86.58
14089;BME280;7120;52.890;6.040;2022-11-20T01:31:24;101325.03;;;-0.22;86.13
14089;BME280;7120;52.890;6.040;2022-11-20T01:33:53;101335.63;;;-0.02;85.69
14089;BME280;7120;52.890;6.040;2022-11-20T01:36:21;101322.47;;;-0.10;85.64
14089;BME280;7120;52.890;6.040;2022-11-20T01:38:47;101332.44;;;-0.17;86.21
14089;BME280;7120;52.890;6.040;2022-11-20T01:41:14;101328.25;;;-0.38;86.14
14089;BME280;7120;52.890;6.040;2022-11-20T01:44:00;101322.28;;;-0.15;87.25
14089;BME280;7120;52.890;6.040;2022-11-20T01:46:26;101312.72;;;-0.05;86.46
14089;BME280;7120;52.890;6.040;2022-11-20T01:49:11;101316.81;;;-0.27;86.48
14089;BME280;7120;52.890;6.040;2022-11-20T01:51:50;101305.72;;;-0.62;87.55
14089;BME280;7120;52.890;6.040;2022-11-20T01:54:29;101284.84;;;-0.67;88.04
14089;BME280;7120;52.890;6.040;2022-11-20T01:56:57;101284.31;;;-0.50;87.48
14089;BME280;7120;52.890;6.040;2022-11-20T01:59:26;101293.13;;;-0.68;87.28
14089;BME280;7120;52.890;6.040;2022-11-20T02:01:53;101304.97;;;-0.76;88.76
14089;BME280;7120;52.890;6.040;2022-11-20T02:04:20;101301.19;;;-0.68;87.67
14089;BME280;7120;52.890;6.040;2022-11-20T02:06:53;101302.38;;;-0.64;87.01
14089;BME280;7120;52.890;6.040;2022-11-20T02:09:20;101296.56;;;-0.54;87.23
14089;BME280;7120;52.890;6.040;2022-11-20T02:11:46;101300.22;;;-1.19;88.66
14089;BME280;7120;52.890;6.040;2022-11-20T02:14:14;101291.47;;;-1.01;89.17
14089;BME280;7120;52.890;6.040;2022-11-20T02:16:44;101287.59;;;-1.12;89.09
14089;BME280;7120;52.890;6.040;2022-11-20T02:24:35;101292.59;;;-0.77;89.08
14089;BME280;7120;52.890;6.040;2022-11-20T02:27:10;101284.56;;;-0.84;88.21
14089;BME280;7120;52.890;6.040;2022-11-20T02:29:40;101288.47;;;-0.86;87.74
14089;BME280;7120;52.890;6.040;2022-11-20T02:32:26;101270.78;;;-0.94;86.97
14089;BME280;7120;52.890;6.040;2022-11-20T02:34:52;101271.50;;;-0.80;86.96
14089;BME280;7120;52.890;6.040;2022-11-20T02:37:19;101283.75;;;-0.84;86.35
14089;BME280;7120;52.890;6.040;2022-11-20T02:39:50;101281.44;;;-0.80;87.08
14089;BME280;7120;52.890;6.040;2022-11-20T02:42:17;101268.66;;;-0.85;86.38
14089;BME280;7120;52.890;6.040;2022-11-20T02:44:42;101258.53;;;-0.83;86.53
14089;BME280;7120;52.890;6.040;2022-11-20T02:47:07;101288.50;;;-0.54;86.44
14089;BME280;7120;52.890;6.040;2022-11-20T02:49:33;101278.16;;;-0.82;86.81
14089;BME280;7120;52.890;6.040;2022-11-20T02:51:58;101282.97;;;-0.91;87.42
14089;BME280;7120;52.890;6.040;2022-11-20T02:54:25;101276.81;;;-0.98;88.00
14089;BME280;7120;52.890;6.040;2022-11-20T02:56:50;101260.03;;;-0.94;87.86
14089;BME280;7120;52.890;6.040;2022-11-20T02:59:15;101279.94;;;-0.70;87.83
14089;BME280;7120;52.890;6.040;2022-11-20T03:01:41;101255.44;;;-0.55;86.15
14089;BME280;7120;52.890;6.040;2022-11-20T03:04:08;101268.88;;;-0.55;85.64
14089;BME280;7120;52.890;6.040;2022-11-20T03:06:34;101263.38;;;-0.67;86.19
14089;BME280;7120;52.890;6.040;2022-11-20T03:08:59;101247.75;;;-0.76;86.56
14089;BME280;7120;52.890;6.040;2022-11-20T03:11:25;101260.50;;;-0.72;87.51
14089;BME280;7120;52.890;6.040;2022-11-20T03:13:51;101239.53;;;-0.81;88.34
14089;BME280;7120;52.890;6.040;2022-11-20T03:16:19;101255.88;;;-0.58;86.68
14089;BME280;7120;52.890;6.040;2022-11-20T03:18:45;101237.84;;;-0.76;86.97
14089;BME280;7120;52.890;6.040;2022-11-20T03:21:12;101244.97;;;-0.63;87.54
14089;BME280;7120;52.890;6.040;2022-11-20T03:23:39;101240.56;;;-0.58;87.11
14089;BME280;7120;52.890;6.040;2022-11-20T03:26:24;101250.34;;;-0.38;86.65
14089;BME280;7120;52.890;6.040;2022-11-20T03:28:51;101251.63;;;-0.72;87.19
14089;BME280;7120;52.890;6.040;2022-11-20T03:31:20;101228.47;;;-0.67;87.31
14089;BME280;7120;52.890;6.040;2022-11-20T03:33:46;101232.59;;;-0.71;88.43
14089;BME280;7120;52.890;6.040;2022-11-20T03:36:13;101228.59;;;-0.55;87.95
14089;BME280;7120;52.890;6.040;2022-11-20T03:38:40;101238.31;;;-0.36;87.81
14089;BME280;7120;52.890;6.040;2022-11-20T03:41:08;101230.00;;;-0.77;88.58
14089;BME280;7120;52.890;6.040;2022-11-20T03:43:37;101237.47;;;-0.54;88.81
14089;BME280;7120;52.890;6.040;2022-11-20T03:46:03;101230.53;;;-0.44;88.13
14089;BME280;7120;52.890;6.040;2022-11-20T03:48:29;101228.91;;;-0.20;87.33
14089;BME280;7120;52.890;6.040;2022-11-20T03:51:13;101219.84;;;-0.25;86.72
14089;BME280;7120;52.890;6.040;2022-11-20T03:53:43;101215.00;;;-0.17;86.31
14089;BME280;7120;52.890;6.040;2022-11-20T03:56:10;101195.25;;;-0.47;87.56
14089;BME280;7120;52.890;6.040;2022-11-20T03:58:37;101209.75;;;-0.30;87.64
14089;BME280;7120;52.890;6.040;2022-11-20T04:01:13;101200.88;;;-0.31;86.69
14089;BME280;7120;52.890;6.040;2022-11-20T04:03:40;101200.72;;;-0.36;86.53
14089;BME280;7120;52.890;6.040;2022-11-20T04:06:08;101193.56;;;-0.42;86.33
14089;BME280;7120;52.890;6.040;2022-11-20T04:08:34;101198.09;;;-0.42;85.90
14089;BME280;7120;52.890;6.040;2022-11-20T04:11:23;101193.81;;;-0.50;85.42
14089;BME280;7120;52.890;6.040;2022-11-20T04:13:56;101191.97;;;-0.74;86.14
14089;BME280;7120;52.890;6.040;2022-11-20T04:16:23;101187.50;;;-0.87;86.60
14089;BME280;7120;52.890;6.040;2022-11-20T04:18:53;101166.56;;;-1.03;87.11
14089;BME280;7120;52.890;6.040;2022-11-20T04:21:19;101177.91;;;-1.01;87.45
14089;BME280;7120;52.890;6.040;2022-11-20T04:23:44;101164.97;;;-1.11;87.89
14089;BME280;7120;52.890;6.040;2022-11-20T04:26:11;101175.03;;;-1.06;88.29
14089;BME280;7120;52.890;6.040;2022-11-20T04:28:37;101175.22;;;-1.01;87.82
14089;BME280;7120;52.890;6.040;2022-11-20T04:31:07;101177.84;;;-0.95;88.34
14089;BME280;7120;52.890;6.040;2022-11-20T04:33:34;101172.53;;;-1.01;89.01
14089;BME280;7120;52.890;6.040;2022-11-20T04:36:23;101178.13;;;-1.41;89.67
14089;BME280;7120;52.890;6.040;2022-11-20T04:38:56;101169.88;;;-1.33;89.54
14089;BME280;7120;52.890;6.040;2022-11-20T04:41:23;101173.31;;;-1.26;89.43
14089;BME280;7120;52.890;6.040;2022-11-20T04:43:50;101186.38;;;-1.36;89.22
14089;BME280;7120;52.890;6.040;2022-11-20T04:46:17;101188.84;;;-1.34;89.80
14089;BME280;7120;52.890;6.040;2022-11-20T04:48:43;101185.50;;;-1.30;90.52
14089;BME280;7120;52.890;6.040;2022-11-20T04:51:08;101185.69;;;-1.25;90.46
14089;BME280;7120;52.890;6.040;2022-11-20T04:53:34;101170.75;;;-1.14;89.60
14089;BME280;7120;52.890;6.040;2022-11-20T04:56:03;101190.84;;;-1.23;90.15
14089;BME280;7120;52.890;6.040;2022-11-20T04:58:30;101190.94;;;-1.05;90.20
14089;BME280;7120;52.890;6.040;2022-11-20T05:01:07;101168.75;;;-0.94;89.64
14089;BME280;7120;52.890;6.040;2022-11-20T05:03:32;101162.63;;;-1.01;89.28
14089;BME280;7120;52.890;6.040;2022-11-20T05:06:04;101149.78;;;-0.99;89.40
14089;BME280;7120;52.890;6.040;2022-11-20T05:08:31;101143.47;;;-1.04;88.38
14089;BME280;7120;52.890;6.040;2022-11-20T05:11:05;101129.78;;;-1.28;88.88
14089;BME280;7120;52.890;6.040;2022-11-20T05:13:32;101143.00;;;-1.26;88.84
14089;BME280;7120;52.890;6.040;2022-11-20T05:16:08;101127.84;;;-1.46;88.89
14089;BME280;7120;52.890;6.040;2022-11-20T05:18:34;101137.09;;;-1.42;89.17
14089;BME280;7120;52.890;6.040;2022-11-20T05:21:00;101128.41;;;-1.37;88.92
14089;BME280;7120;52.890;6.040;2022-11-20T05:23:25;101128.03;;;-1.41;89.23
14089;BME280;7120;52.890;6.040;2022-11-20T05:25:53;101123.72;;;-1.48;88.46
14089;BME280;7120;52.890;6.040;2022-11-20T05:28:18;101112.88;;;-1.60;88.52
14089;BME280;7120;52.890;6.040;2022-11-20T05:30:44;101120.25;;;-1.55;88.07
14089;BME280;7120;52.890;6.040;2022-11-20T05:33:09;101130.34;;;-1.51;88.24
14089;BME280;7120;52.890;6.040;2022-11-20T05:35:34;101121.81;;;-1.41;88.44
14089;BME280;7120;52.890;6.040;2022-11-20T05:38:00;101131.09;;;-1.37;87.75
14089;BME280;7120;52.890;6.040;2022-11-20T05:40:25;101135.09;;;-1.53;87.55
14089;BME280;7120;52.890;6.040;2022-11-20T05:42:50;101130.97;;;-1.55;87.55
14089;BME280;7120;52.890;6.040;2022-11-20T05:45:16;101142.09;;;-1.52;87.24
14089;BME280;7120;52.890;6.040;2022-11-20T05:47:41;101122.81;;;-1.67;86.83
14089;BME280;7120;52.890;6.040;2022-11-20T05:50:07;101130.63;;;-1.66;87.46
14089;BME280;7120;52.890;6.040;2022-11-20T05:52:34;101121.75;;;-1.66;88.12
14089;BME280;7120;52.890;6.040;2022-11-20T05:54:59;101114.31;;;-1.64;86.99
14089;BME280;7120;52.890;6.040;2022-11-20T05:57:25;101110.84;;;-1.71;87.56
14089;BME280;7120;52.890;6.040;2022-11-20T05:59:50;101106.91;;;-1.62;87.56
14089;BME280;7120;52.890;6.040;2022-11-20T06:02:18;101119.88;;;-1.59;87.34
14089;BME280;7120;52.890;6.040;2022-11-20T06:04:44;101119.59;;;-1.51;88.04
14089;BME280;7120;52.890;6.040;2022-11-20T06:07:09;101115.72;;;-1.55;88.01
14089;BME280;7120;52.890;6.040;2022-11-20T06:09:35;101100.84;;;-1.51;88.20
14089;BME280;7120;52.890;6.040;2022-11-20T06:12:00;101107.44;;;-1.47;87.74
14089;BME280;7120;52.890;6.040;2022-11-20T06:14:31;101118.06;;;-1.33;87.52
14089;BME280;7120;52.890;6.040;2022-11-20T06:16:56;101104.13;;;-1.17;87.41
14089;BME280;7120;52.890;6.040;2022-11-20T06:19:22;101135.06;;;-1.15;87.60
14089;BME280;7120;52.890;6.040;2022-11-20T06:21:48;101140.31;;;-1.26;87.04
14089;BME280;7120;52.890;6.040;2022-11-20T06:24:14;101141.63;;;-1.42;88.74
14089;BME280;7120;52.890;6.040;2022-11-20T06:26:42;101135.41;;;-1.36;89.25
14089;BME280;7120;52.890;6.040;2022-11-20T06:29:07;101126.13;;;-1.33;88.10
14089;BME280;7120;52.890;6.040;2022-11-20T06:31:33;101122.47;;;-1.14;87.95
14089;BME280;7120;52.890;6.040;2022-11-20T06:34:00;101127.84;;;-0.89;87.39
14089;BME280;7120;52.890;6.040;2022-11-20T06:36:26;101136.13;;;-0.91;86.49
14089;BME280;7120;52.890;6.040;2022-11-20T06:38:51;101121.31;;;-1.00;86.61
14089;BME280;7120;52.890;6.040;2022-11-20T06:41:19;101141.63;;;-0.86;86.67
14089;BME280;7120;52.890;6.040;2022-11-20T06:43:45;101135.25;;;-0.85;86.01
14089;BME280;7120;52.890;6.040;2022-11-20T06:46:12;101146.75;;;-0.77;86.48
14089;BME280;7120;52.890;6.040;2022-11-20T06:48:38;101143.78;;;-0.69;86.37
14089;BME280;7120;52.890;6.040;2022-11-20T06:51:05;101141.19;;;-0.58;86.06
14089;BME280;7120;52.890;6.040;2022-11-20T06:53:30;101139.13;;;-0.56;86.02
14089;BME280;7120;52.890;6.040;2022-11-20T06:55:56;101138.78;;;-0.66;86.80
14089;BME280;7120;52.890;6.040;2022-11-20T06:58:29;101129.25;;;-0.62;86.50
14089;BME280;7120;52.890;6.040;2022-11-20T07:01:12;101132.19;;;-0.63;87.22
14089;BME280;7120;52.890;6.040;2022-11-20T07:03:43;101130.91;;;-0.61;86.14
14089;BME280;7120;52.890;6.040;2022-11-20T07:06:09;101127.50;;;-0.74;86.33
14089;BME280;7120;52.890;6.040;2022-11-20T07:08:35;101132.50;;;-0.78;87.56
14089;BME280;7120;52.890;6.040;2022-11-20T07:11:04;101127.28;;;-0.73;87.56
14089;BME280;7120;52.890;6.040;2022-11-20T07:13:31;101144.97;;;-0.65;87.08
14089;BME280;7120;52.890;6.040;2022-11-20T07:16:01;101140.22;;;-0.63;86.60
14089;BME280;7120;52.890;6.040;2022-11-20T07:18:26;101148.59;;;-0.53;86.48
14089;BME280;7120;52.890;6.040;2022-11-20T07:20:52;101118.59;;;-0.68;86.86
14089;BME280;7120;52.890;6.040;2022-11-20T07:23:22;101138.91;;;-0.54;86.48
14089;BME280;7120;52.890;6.040;2022-11-20T07:25:47;101136.88;;;-0.59;87.05
14089;BME280;7120;52.890;6.040;2022-11-20T07:28:12;101118.47;;;-0.55;86.23
14089;BME280;7120;52.890;6.040;2022-11-20T07:30:38;101137.69;;;-0.58;86.78
14089;BME280;7120;52.890;6.040;2022-11-20T07:33:05;101115.97;;;-0.57;85.69
14089;BME280;7120;52.890;6.040;2022-11-20T07:35:30;101130.78;;;-0.47;86.10
14089;BME280;7120;52.890;6.040;2022-11-20T07:37:55;101135.75;;;-0.51;85.59
14089;BME280;7120;52.890;6.040;2022-11-20T07:40:21;101121.16;;;-0.55;85.46
14089;BME280;7120;52.890;6.040;2022-11-20T07:42:52;101130.72;;;-0.66;86.12
14089;BME280;7120;52.890;6.040;2022-11-20T07:45:19;101118.63;;;-0.75;86.28
14089;BME280;7120;52.890;6.040;2022-11-20T07:47:44;101116.56;;;-0.73;86.57
14089;BME280;7120;52.890;6.040;2022-11-20T07:50:10;101109.31;;;-0.72;86.58
14089;BME280;7120;52.890;6.040;2022-11-20T07:52:37;101123.06;;;-0.62;86.41
14089;BME280;7120;52.890;6.040;2022-11-20T07:55:02;101119.56;;;-0.63;85.90
14089;BME280;7120;52.890;6.040;2022-11-20T07:57:28;101125.06;;;-0.58;85.29
14089;BME280;7120;52.890;6.040;2022-11-20T07:59:53;101117.69;;;-0.62;85.90
14089;BME280;7120;52.890;6.040;2022-11-20T08:02:20;101113.28;;;-0.75;86.21
14089;BME280;7120;52.890;6.040;2022-11-20T08:04:46;101114.09;;;-0.74;86.12
14089;BME280;7120;52.890;6.040;2022-11-20T08:07:11;101105.16;;;-0.93;86.68
14089;BME280;7120;52.890;6.040;2022-11-20T08:09:36;101095.03;;;-0.91;86.59
14089;BME280;7120;52.890;6.040;2022-11-20T08:12:02;101093.44;;;-0.99;86.34
14089;BME280;7120;52.890;6.040;2022-11-20T08:14:45;101102.66;;;-0.88;87.05
14089;BME280;7120;52.890;6.040;2022-11-20T08:17:11;101106.50;;;-0.77;87.21
14089;BME280;7120;52.890;6.040;2022-11-20T08:19:37;101081.75;;;-0.86;87.25
14089;BME280;7120;52.890;6.040;2022-11-20T08:22:02;101094.00;;;-0.72;87.14
14089;BME280;7120;52.890;6.040;2022-11-20T08:24:28;101100.78;;;-0.63;85.86
14089;BME280;7120;52.890;6.040;2022-11-20T08:26:53;101117.41;;;-0.36;85.57
14089;BME280;7120;52.890;6.040;2022-11-20T08:29:18;101112.53;;;-0.20;84.82
14089;BME280;7120;52.890;6.040;2022-11-20T08:31:44;101117.59;;;-0.12;84.07
14089;BME280;7120;52.890;6.040;2022-11-20T08:34:09;101093.38;;;-0.31;82.70
14089;BME280;7120;52.890;6.040;2022-11-20T08:36:35;101105.19;;;-0.32;83.40
14089;BME280;7120;52.890;6.040;2022-11-20T08:39:01;101110.41;;;0.00;82.64
14089;BME280;7120;52.890;6.040;2022-11-20T08:41:26;101102.13;;;-0.17;83.10
14089;BME280;7120;52.890;6.040;2022-11-20T08:44:02;101108.63;;;-0.06;82.11
14089;BME280;7120;52.890;6.040;2022-11-20T08:46:39;101114.63;;;0.26;81.48
14089;BME280;7120;52.890;6.040;2022-11-20T08:49:10;101099.63;;;0.18;81.82
14089;BME280;7120;52.890;6.040;2022-11-20T08:51:36;101095.06;;;0.49;81.26
14089;BME280;7120;52.890;6.040;2022-11-20T08:54:02;101109.75;;;0.35;80.03
14089;BME280;7120;52.890;6.040;2022-11-20T08:56:28;101092.50;;;0.54;80.51
14089;BME280;7120;52.890;6.040;2022-11-20T08:58:53;101083.41;;;0.67;80.13
14089;BME280;7120;52.890;6.040;2022-11-20T09:01:20;101080.25;;;0.70;81.53
14089;BME280;7120;52.890;6.040;2022-11-20T09:03:46;101085.94;;;0.92;80.17
14089;BME280;7120;52.890;6.040;2022-11-20T09:06:12;101083.94;;;0.87;78.82
14089;BME280;7120;52.890;6.040;2022-11-20T09:08:37;101088.41;;;0.93;79.37
14089;BME280;7120;52.890;6.040;2022-11-20T09:11:03;101094.34;;;0.95;79.93
14089;BME280;7120;52.890;6.040;2022-11-20T09:13:31;101080.06;;;0.83;80.85
14089;BME280;7120;52.890;6.040;2022-11-20T09:15:59;101090.41;;;1.09;80.33
14089;BME280;7120;52.890;6.040;2022-11-20T09:18:26;101100.94;;;1.11;78.69
14089;BME280;7120;52.890;6.040;2022-11-20T09:20:56;101086.88;;;1.09;77.96
14089;BME280;7120;52.890;6.040;2022-11-20T09:23:22;101082.53;;;1.20;79.11
14089;BME280;7120;52.890;6.040;2022-11-20T09:25:47;101086.06;;;1.32;79.43
14089;BME280;7120;52.890;6.040;2022-11-20T09:28:13;101080.91;;;0.95;78.12
14089;BME280;7120;52.890;6.040;2022-11-20T09:30:38;101073.19;;;1.10;78.10
14089;BME280;7120;52.890;6.040;2022-11-20T09:33:04;101066.47;;;0.90;79.39
14089;BME280;7120;52.890;6.040;2022-11-20T09:35:30;101067.09;;;0.92;79.76
14089;BME280;7120;52.890;6.040;2022-11-20T09:37:55;101075.63;;;0.89;79.38
14089;BME280;7120;52.890;6.040;2022-11-20T09:40:24;101056.44;;;0.85;80.25
14089;BME280;7120;52.890;6.040;2022-11-20T09:48:20;101065.22;;;1.16;80.00
14089;BME280;7120;52.890;6.040;2022-11-20T09:51:16;101061.81;;;1.32;79.13
14089;BME280;7120;52.890;6.040;2022-11-20T09:54:01;101032.50;;;1.47;78.69
14089;BME280;7120;52.890;6.040;2022-11-20T09:56:30;101045.47;;;1.74;76.66
14089;BME280;7120;52.890;6.040;2022-11-20T09:58:58;101057.28;;;1.84;76.16
14089;BME280;7120;52.890;6.040;2022-11-20T10:01:29;101062.09;;;1.82;76.08
14089;BME280;7120;52.890;6.040;2022-11-20T10:04:00;101038.00;;;1.52;76.80
14089;BME280;7120;52.890;6.040;2022-11-20T10:06:32;101027.59;;;1.32;77.68
14089;BME280;7120;52.890;6.040;2022-11-20T10:09:16;101046.47;;;1.56;79.18
14089;BME280;7120;52.890;6.040;2022-11-20T10:14:29;101004.53;;;1.48;77.38
14089;BME280;7120;52.890;6.040;2022-11-20T10:30:09;101042.13;;;2.69;72.03
14089;BME280;7120;52.890;6.040;2022-11-20T10:32:46;101033.09;;;2.80;71.66
14089;BME280;7120;52.890;6.040;2022-11-20T10:35:21;101026.47;;;3.05;71.15
14089;BME280;7120;52.890;6.040;2022-11-20T10:37:57;101024.47;;;3.17;70.15
14089;BME280;7120;52.890;6.040;2022-11-20T10:40:39;101025.06;;;3.19;72.65
14089;BME280;7120;52.890;6.040;2022-11-20T10:43:21;101018.03;;;3.18;69.49
14089;BME280;7120;52.890;6.040;2022-11-20T10:45:56;101006.09;;;2.97;69.05
14089;BME280;7120;52.890;6.040;2022-11-20T10:48:25;101022.53;;;3.51;71.42
14089;BME280;7120;52.890;6.040;2022-11-20T10:53:38;101012.16;;;3.04;69.67
14089;BME280;7120;52.890;6.040;2022-11-20T10:59:45;101011.25;;;3.37;69.95
14089;BME280;7120;52.890;6.040;2022-11-20T11:01:48;101009.50;;;3.48;68.57
14089;BME280;7120;52.890;6.040;2022-11-20T11:06:58;101005.19;;;3.69;67.13
14089;BME280;7120;52.890;6.040;2022-11-20T11:09:36;100999.22;;;3.94;64.98
14089;BME280;7120;52.890;6.040;2022-11-20T11:12:08;100997.50;;;3.39;67.79
14089;BME280;7120;52.890;6.040;2022-11-20T11:14:51;100995.19;;;3.69;68.41
14089;BME280;7120;52.890;6.040;2022-11-20T11:20:06;100990.50;;;3.65;67.26
14089;BME280;7120;52.890;6.040;2022-11-20T11:22:49;100984.47;;;3.57;66.17
14089;BME280;7120;52.890;6.040;2022-11-20T11:25:35;100974.38;;;3.48;63.85
14089;BME280;7120;52.890;6.040;2022-11-20T11:30:44;100969.19;;;3.90;65.65
14089;BME280;7120;52.890;6.040;2022-11-20T11:33:11;100978.84;;;3.86;68.78
14089;BME280;7120;52.890;6.040;2022-11-20T11:35:57;100956.34;;;3.80;65.10
14089;BME280;7120;52.890;6.040;2022-11-20T11:38:34;100951.41;;;4.26;64.58
14089;BME280;7120;52.890;6.040;2022-11-20T11:41:01;100928.34;;;4.56;65.95
14089;BME280;7120;52.890;6.040;2022-11-20T11:43:31;100940.00;;;4.93;63.02
14089;BME280;7120;52.890;6.040;2022-11-20T11:46:32;100944.91;;;5.07;64.56
14089;BME280;7120;52.890;6.040;2022-11-20T11:48:59;100939.59;;;5.27;64.39
14089;BME280;7120;52.890;6.040;2022-11-20T11:51:30;100930.19;;;4.92;60.28
14089;BME280;7120;52.890;6.040;2022-11-20T11:53:58;100935.25;;;4.79;60.54
14089;BME280;7120;52.890;6.040;2022-11-20T11:56:25;100921.72;;;4.79;58.79
14089;BME280;7120;52.890;6.040;2022-11-20T11:58:51;100933.97;;;4.44;61.85
14089;BME280;7120;52.890;6.040;2022-11-20T12:04:02;100924.75;;;4.45;62.32
14089;BME280;7120;52.890;6.040;2022-11-20T12:06:30;100910.94;;;4.47;62.18
14089;BME280;7120;52.890;6.040;2022-11-20T12:09:03;100910.78;;;4.63;64.83
14089;BME280;7120;52.890;6.040;2022-11-20T12:11:34;100914.16;;;4.38;61.77
14089;BME280;7120;52.890;6.040;2022-11-20T12:14:19;100919.03;;;4.41;63.20
14089;BME280;7120;52.890;6.040;2022-11-20T12:16:49;100915.16;;;4.69;64.28
14089;BME280;7120;52.890;6.040;2022-11-20T12:19:15;100912.94;;;4.61;62.49
14089;BME280;7120;52.890;6.040;2022-11-20T12:29:53;100901.78;;;4.53;65.64
14089;BME280;7120;52.890;6.040;2022-11-20T12:38:26;100879.28;;;4.15;62.82
14089;BME280;7120;52.890;6.040;2022-11-20T12:43:39;100866.00;;;4.51;63.84
14089;BME280;7120;52.890;6.040;2022-11-20T12:46:58;100862.25;;;4.52;63.69
14089;BME280;7120;52.890;6.040;2022-11-20T12:52:42;100852.31;;;4.25;62.53
14089;BME280;7120;52.890;6.040;2022-11-20T12:55:14;100857.88;;;4.51;62.23
14089;BME280;7120;52.890;6.040;2022-11-20T12:57:55;100859.22;;;4.48;65.84
14089;BME280;7120;52.890;6.040;2022-11-20T13:00:24;100838.09;;;4.45;64.97
14089;BME280;7120;52.890;6.040;2022-11-20T13:08:37;100842.56;;;4.72;64.44
14089;BME280;7120;52.890;6.040;2022-11-20T13:18:54;100806.97;;;4.48;64.72
14089;BME280;7120;52.890;6.040;2022-11-20T13:21:37;100814.31;;;4.57;64.49
14089;BME280;7120;52.890;6.040;2022-11-20T13:24:27;100805.69;;;4.60;63.91
14089;BME280;7120;52.890;6.040;2022-11-20T13:29:33;100790.19;;;4.46;63.10
14089;BME280;7120;52.890;6.040;2022-11-20T13:32:03;100784.78;;;4.51;65.61
14089;BME280;7120;52.890;6.040;2022-11-20T13:34:29;100763.25;;;4.24;64.69
14089;BME280;7120;52.890;6.040;2022-11-20T13:36:57;100772.66;;;4.11;66.94
14089;BME280;7120;52.890;6.040;2022-11-20T13:39:31;100766.69;;;4.09;64.19
14089;BME280;7120;52.890;6.040;2022-11-20T13:41:59;100767.13;;;3.64;65.88
14089;BME280;7120;52.890;6.040;2022-11-20T13:44:35;100763.06;;;3.61;68.40
14089;BME280;7120;52.890;6.040;2022-11-20T13:47:03;100760.56;;;3.86;67.41
14089;BME280;7120;52.890;6.040;2022-11-20T13:49:32;100758.66;;;3.87;66.45
14089;BME280;7120;52.890;6.040;2022-11-20T13:52:27;100748.81;;;3.71;69.58
14089;BME280;7120;52.890;6.040;2022-11-20T14:00:18;100752.66;;;3.75;69.06
14089;BME280;7120;52.890;6.040;2022-11-20T14:02:58;100723.50;;;3.50;70.02
14089;BME280;7120;52.890;6.040;2022-11-20T14:05:25;100741.31;;;3.46;69.58
14089;BME280;7120;52.890;6.040;2022-11-20T14:07:51;100744.91;;;3.56;71.00
14089;BME280;7120;52.890;6.040;2022-11-20T14:10:25;100723.91;;;3.37;70.55
14089;BME280;7120;52.890;6.040;2022-11-20T14:12:50;100729.31;;;3.37;69.70
14089;BME280;7120;52.890;6.040;2022-11-20T14:17:52;100718.56;;;3.42;70.56
14089;BME280;7120;52.890;6.040;2022-11-20T14:20:18;100715.38;;;3.50;70.98
14089;BME280;7120;52.890;6.040;2022-11-20T14:22:49;100709.09;;;3.39;71.57
14089;BME280;7120;52.890;6.040;2022-11-20T14:27:42;100704.66;;;3.60;68.97
14089;BME280;7120;52.890;6.040;2022-11-20T14:30:47;100691.47;;;3.37;70.31
14089;BME280;7120;52.890;6.040;2022-11-20T14:33:12;100695.81;;;3.38;71.44
14089;BME280;7120;52.890;6.040;2022-11-20T14:35:44;100681.69;;;3.25;71.83
14089;BME280;7120;52.890;6.040;2022-11-20T14:38:13;100666.50;;;2.92;72.37
14089;BME280;7120;52.890;6.040;2022-11-20T14:40:39;100660.28;;;2.92;74.30
14089;BME280;7120;52.890;6.040;2022-11-20T14:48:23;100656.91;;;3.07;72.23
14089;BME280;7120;52.890;6.040;2022-11-20T14:50:50;100653.94;;;3.08;74.34